Time;durP1;ratioP1;P1;durP2;ratioP2;P2;SDS_P1;SDS_P2;PMS_P1;PMS_P2;Temp;Humidity;BMP_temperature;BMP_pressure;BME280_temperature;BME280_humidity;BME280_pressure;Samples;Min_cycle;Max_cycle;Signal;HPM_P1;HPM_P2
2021/05/26 00:02:05;;;;;;;86.53;82.43;;;;;;;17.18;100.00;100949.72;5066790;28;20045;-85
2021/05/26 00:04:32;;;;;;;81.30;77.22;;;;;;;17.17;100.00;100948.09;5040009;28;20060;-89
2021/05/26 00:06:58;;;;;;;81.00;76.90;;;;;;;17.16;100.00;100949.16;5048202;28;20049;-85
2021/05/26 00:09:25;;;;;;;71.40;67.70;;;;;;;17.09;100.00;100946.63;5045274;28;20049;-85
2021/05/26 00:11:52;;;;;;;71.45;67.75;;;;;;;17.14;100.00;100953.97;5044549;28;20056;-87
2021/05/26 00:14:18;;;;;;;72.97;69.28;;;;;;;17.18;100.00;100955.09;5053324;28;20414;-88
2021/05/26 00:16:44;;;;;;;103.30;98.07;;;;;;;17.13;100.00;100955.84;5050728;28;20514;-87
2021/05/26 00:19:15;;;;;;;116.43;110.63;;;;;;;17.00;100.00;100952.63;5046823;28;20482;-87
2021/05/26 00:21:42;;;;;;;88.85;84.30;;;;;;;17.03;100.00;100949.47;5050494;28;20426;-87
2021/05/26 00:24:12;;;;;;;95.15;90.28;;;;;;;16.87;100.00;100956.44;5051729;28;20056;-86
2021/05/26 00:26:39;;;;;;;78.07;73.97;;;;;;;16.91;100.00;100963.78;5049662;28;20132;-87
2021/05/26 00:29:06;;;;;;;84.40;80.03;;;;;;;16.58;100.00;100964.50;5049227;28;20048;-88
2021/05/26 00:31:35;;;;;;;39.22;37.13;;;;;;;16.51;100.00;100965.69;5050066;28;20179;-87
2021/05/26 00:34:01;;;;;;;37.42;35.63;;;;;;;16.75;100.00;100964.53;5049642;28;20071;-87
2021/05/26 00:36:28;;;;;;;96.35;91.32;;;;;;;16.37;100.00;100963.28;5049641;28;20045;-87
2021/05/26 00:38:56;;;;;;;92.40;87.30;;;;;;;16.49;100.00;100957.91;5048420;28;20498;-87
2021/05/26 00:41:30;;;;;;;93.57;88.60;;;;;;;16.13;100.00;100962.53;5044009;28;20090;-86
2021/05/26 00:43:57;;;;;;;77.00;73.10;;;;;;;16.43;100.00;100962.34;5047613;28;20057;-87
2021/05/26 00:46:23;;;;;;;69.80;65.95;;;;;;;16.18;100.00;100972.53;5046181;28;20524;-86
2021/05/26 00:48:50;;;;;;;90.18;85.38;;;;;;;16.43;100.00;100966.88;5050490;28;20072;-87
2021/05/26 00:51:16;;;;;;;79.80;75.70;;;;;;;16.47;100.00;100968.84;5047735;28;20083;-88
2021/05/26 00:53:43;;;;;;;79.03;74.55;;;;;;;15.64;100.00;100977.22;5048735;28;20045;-87
2021/05/26 00:56:10;;;;;;;102.72;96.93;;;;;;;15.87;100.00;100973.75;5051050;28;20450;-86
2021/05/26 00:58:37;;;;;;;98.32;93.22;;;;;;;16.12;100.00;100971.63;5052607;28;20049;-87
2021/05/26 01:01:03;;;;;;;37.47;35.67;;;;;;;16.38;100.00;100978.31;5049203;28;20486;-87
2021/05/26 01:03:32;;;;;;;36.05;34.25;;;;;;;16.34;100.00;100969.13;5043852;28;20527;-87
2021/05/26 01:06:01;;;;;;;39.13;37.03;;;;;;;16.09;100.00;100969.41;5048761;28;20064;-87
2021/05/26 01:08:28;;;;;;;38.10;35.72;;;;;;;15.88;100.00;100976.19;5044555;28;20049;-87
2021/05/26 01:10:57;;;;;;;42.95;40.65;;;;;;;16.07;100.00;100976.03;5051187;28;20098;-86
2021/05/26 01:13:25;;;;;;;38.50;36.50;;;;;;;15.67;100.00;100977.59;5052953;28;20052;-87
2021/05/26 01:15:55;;;;;;;38.33;36.05;;;;;;;15.45;100.00;100979.19;5048635;28;20198;-87
2021/05/26 01:18:33;;;;;;;38.45;36.15;;;;;;;15.78;100.00;100979.47;5047847;28;20068;-87
2021/05/26 01:21:06;;;;;;;39.85;37.47;;;;;;;15.81;100.00;100978.19;5047630;28;20139;-87
2021/05/26 01:23:38;;;;;;;;;;;;;;;15.82;100.00;100982.47;5050208;28;20049;-86
2021/05/26 01:26:07;;;;;;;44.65;42.15;;;;;;;15.79;100.00;100982.94;5046784;28;20352;-86
2021/05/26 01:28:42;;;;;;;38.70;36.60;;;;;;;15.77;100.00;100974.34;5049678;28;20131;-87
2021/05/26 01:31:08;;;;;;;38.15;35.90;;;;;;;15.66;100.00;100977.81;5042803;28;20048;-88
2021/05/26 01:33:36;;;;;;;40.28;37.97;;;;;;;15.63;100.00;100976.41;5045918;28;20045;-87
2021/05/26 01:36:05;;;;;;;39.83;37.60;;;;;;;15.81;100.00;100972.84;5052523;28;20426;-88
2021/05/26 01:38:32;;;;;;;42.67;40.30;;;;;;;15.79;100.00;100967.72;5034589;28;20052;-87
2021/05/26 01:41:03;;;;;;;37.10;35.20;;;;;;;15.84;100.00;100969.69;5046975;28;20502;-88
2021/05/26 01:43:32;;;;;;;36.15;34.08;;;;;;;15.85;100.00;100963.28;5047267;28;20055;-87
2021/05/26 01:46:00;;;;;;;36.72;34.72;;;;;;;15.75;100.00;100968.41;5045385;28;20506;-87
2021/05/26 01:48:26;;;;;;;34.60;32.70;;;;;;;15.73;100.00;100976.69;5042163;28;20041;-87
2021/05/26 01:50:57;;;;;;;38.95;36.80;;;;;;;15.62;100.00;100977.47;5048586;28;20046;-87
2021/05/26 01:53:27;;;;;;;39.00;36.90;;;;;;;15.63;100.00;100983.63;5043758;28;20045;-87
2021/05/26 01:55:56;;;;;;;37.60;35.45;;;;;;;15.53;100.00;100985.03;5054159;28;20474;-87
2021/05/26 01:58:24;;;;;;;37.42;35.20;;;;;;;15.02;100.00;100988.31;5050390;28;20048;-87
2021/05/26 02:00:50;;;;;;;36.65;34.45;;;;;;;14.81;100.00;101003.03;5088534;22;20141;-78
2021/05/26 02:03:19;;;;;;;41.38;38.70;;;;;;;14.65;100.00;101004.47;5049028;28;20071;-77
2021/05/26 02:05:45;;;;;;;43.75;41.03;;;;;;;14.92;100.00;101009.44;5079389;22;20056;-88
2021/05/26 02:08:11;;;;;;;44.63;41.83;;;;;;;15.09;100.00;101005.06;5063251;28;20049;-86
2021/05/26 02:13:22;;;;;;;37.38;34.88;;;;;;;14.65;100.00;101021.31;5062831;28;20051;-86
2021/05/26 02:15:49;;;;;;;36.00;33.40;;;;;;;14.27;100.00;101018.88;5062650;28;20048;-87
2021/05/26 02:18:16;;;;;;;38.47;35.65;;;;;;;14.53;100.00;101022.31;5064048;28;20087;-86
2021/05/26 02:20:42;;;;;;;42.67;39.63;;;;;;;14.42;100.00;101026.50;5061196;28;20506;-86
2021/05/26 02:23:10;;;;;;;40.25;37.65;;;;;;;14.64;100.00;101030.41;5065555;28;20052;-86
2021/05/26 02:25:36;;;;;;;40.13;37.53;;;;;;;14.55;100.00;101034.38;5061418;28;20053;-89
2021/05/26 02:28:03;;;;;;;41.85;38.92;;;;;;;14.31;100.00;101043.28;5066480;28;20059;-87
2021/05/26 02:30:29;;;;;;;39.33;36.42;;;;;;;14.11;100.00;101044.31;5071675;28;20040;-87
2021/05/26 02:32:56;;;;;;;39.08;36.08;;;;;;;14.43;100.00;101037.00;5068091;28;20040;-87
2021/05/26 02:35:22;;;;;;;37.20;34.70;;;;;;;14.63;100.00;101046.66;5068986;28;20093;-86
2021/05/26 02:37:49;;;;;;;38.33;35.60;;;;;;;14.24;100.00;101043.34;5069537;28;20722;-87
2021/05/26 02:40:15;;;;;;;40.85;37.85;;;;;;;14.03;100.00;101049.94;5069006;28;20506;-87
2021/05/26 02:42:42;;;;;;;38.38;35.65;;;;;;;14.01;100.00;101057.38;5070109;28;20045;-86
2021/05/26 02:45:09;;;;;;;42.45;39.75;;;;;;;14.39;100.00;101056.34;5070988;28;20113;-88
2021/05/26 02:47:36;;;;;;;36.33;33.83;;;;;;;14.62;100.00;101056.53;5069848;28;20048;-86
2021/05/26 02:50:03;;;;;;;36.08;33.70;;;;;;;14.79;100.00;101055.91;5069361;28;20056;-87
2021/05/26 02:52:30;;;;;;;35.67;33.58;;;;;;;14.95;100.00;101060.63;5066084;28;20041;-87
2021/05/26 02:54:56;;;;;;;36.28;34.05;;;;;;;14.58;100.00;101063.38;5061099;28;20048;-87
2021/05/26 02:57:22;;;;;;;37.72;35.30;;;;;;;14.61;100.00;101076.28;5060519;28;20045;-87
2021/05/26 02:59:49;;;;;;;38.22;35.53;;;;;;;14.68;100.00;101075.38;5070570;28;20502;-88
2021/05/26 03:02:15;;;;;;;36.60;34.10;;;;;;;14.63;100.00;101082.19;5062572;28;20045;-88
2021/05/26 03:04:42;;;;;;;35.33;33.03;;;;;;;14.75;100.00;101084.94;5059867;28;20441;-87
2021/05/26 03:07:09;;;;;;;36.13;33.47;;;;;;;14.63;100.00;101086.75;5063539;28;20048;-87
2021/05/26 03:09:35;;;;;;;37.15;34.63;;;;;;;14.74;100.00;101091.34;5060154;28;20122;-87
2021/05/26 03:12:01;;;;;;;51.58;47.95;;;;;;;14.61;100.00;101092.31;5061912;28;20056;-87
2021/05/26 03:14:28;;;;;;;56.55;53.28;;;;;;;14.30;100.00;101103.91;5057839;28;20045;-87
2021/05/26 03:16:54;;;;;;;58.08;54.88;;;;;;;14.74;100.00;101095.88;5064922;28;20049;-86
2021/05/26 03:19:20;;;;;;;69.78;65.78;;;;;;;14.74;100.00;101095.88;5061615;28;20060;-87
2021/05/26 03:21:47;;;;;;;34.67;32.47;;;;;;;14.85;100.00;101106.63;5061382;28;20048;-86
2021/05/26 03:24:14;;;;;;;34.45;32.15;;;;;;;14.64;100.00;101105.25;5054027;28;20127;-86
2021/05/26 03:26:40;;;;;;;38.05;35.58;;;;;;;14.89;100.00;101096.31;5062662;28;20060;-86
2021/05/26 03:29:07;;;;;;;36.63;34.22;;;;;;;14.88;100.00;101100.81;5056971;28;20056;-88
2021/05/26 03:31:33;;;;;;;38.13;35.60;;;;;;;14.93;100.00;101102.81;5062435;28;20227;-87
2021/05/26 03:34:00;;;;;;;36.13;33.53;;;;;;;15.03;100.00;101096.94;5059119;28;20052;-87
2021/05/26 03:36:26;;;;;;;36.30;33.42;;;;;;;15.09;100.00;101101.38;5059157;28;20044;-87
2021/05/26 03:38:52;;;;;;;38.40;35.95;;;;;;;15.02;100.00;101108.69;5057765;28;20119;-87
2021/05/26 03:41:20;;;;;;;34.00;31.30;;;;;;;15.18;100.00;101091.19;5059736;28;20055;-86
2021/05/26 03:43:46;;;;;;;35.38;32.58;;;;;;;15.09;100.00;101098.72;5065486;28;20053;-86
2021/05/26 03:46:13;;;;;;;38.83;36.03;;;;;;;15.30;100.00;101106.22;5060079;28;20086;-86
2021/05/26 03:48:39;;;;;;;40.92;38.10;;;;;;;15.35;100.00;101105.56;5059723;28;20434;-86
2021/05/26 03:51:06;;;;;;;41.42;38.72;;;;;;;15.42;100.00;101098.25;5053983;28;20060;-87
2021/05/26 03:53:32;;;;;;;41.25;38.70;;;;;;;15.64;100.00;101108.41;5061979;28;20049;-86
2021/05/26 03:55:59;;;;;;;41.88;39.28;;;;;;;15.66;100.00;101103.66;5056253;28;20106;-87
2021/05/26 03:58:26;;;;;;;38.53;36.42;;;;;;;15.65;100.00;101099.34;5060066;28;20044;-87
2021/05/26 04:00:52;;;;;;;34.42;32.25;;;;;;;15.76;100.00;101099.41;5056142;28;20052;-87
2021/05/26 04:03:18;;;;;;;33.70;31.80;;;;;;;15.77;100.00;101111.75;5058746;28;20053;-87
2021/05/26 04:05:45;;;;;;;32.80;30.58;;;;;;;15.94;100.00;101103.03;5058100;28;20528;-87
2021/05/26 04:08:12;;;;;;;32.45;30.65;;;;;;;15.78;100.00;101101.84;5060956;28;20143;-86
2021/05/26 04:10:38;;;;;;;30.45;28.85;;;;;;;15.87;100.00;101102.31;5059228;28;20047;-86
2021/05/26 04:13:04;;;;;;;28.73;27.02;;;;;;;15.79;100.00;101098.94;5055524;28;20053;-88
2021/05/26 04:15:32;;;;;;;30.25;28.38;;;;;;;16.20;100.00;101107.13;5053137;28;20048;-87
2021/05/26 04:18:04;;;;;;;30.23;28.20;;;;;;;16.30;100.00;101099.28;5057389;28;20049;-86
2021/05/26 04:20:30;;;;;;;33.00;30.95;;;;;;;16.58;100.00;101109.28;5058084;28;20045;-87
2021/05/26 04:22:57;;;;;;;35.67;33.08;;;;;;;16.67;100.00;101115.09;5062064;28;20492;-87
2021/05/26 04:25:24;;;;;;;36.08;33.67;;;;;;;16.90;100.00;101115.06;5060262;28;20110;-86
2021/05/26 04:27:50;;;;;;;39.47;36.28;;;;;;;16.94;100.00;101129.66;5061644;28;20051;-86
2021/05/26 04:30:17;;;;;;;59.53;55.58;;;;;;;17.14;100.00;101129.22;5060273;28;20048;-87
2021/05/26 04:32:44;;;;;;;77.72;72.80;;;;;;;17.34;100.00;101138.72;5061182;28;20322;-87
2021/05/26 04:35:13;;;;;;;59.20;55.17;;;;;;;17.47;100.00;101148.34;5050342;28;20053;-88
2021/05/26 04:37:39;;;;;;;58.58;54.13;;;;;;;17.66;100.00;101148.94;5053453;28;20048;-88
2021/05/26 04:40:07;;;;;;;57.50;53.03;;;;;;;17.60;100.00;101154.22;5057979;28;20490;-87
2021/05/26 04:42:33;;;;;;;54.88;51.05;;;;;;;17.65;100.00;101172.28;5059607;28;20109;-87
2021/05/26 04:44:59;;;;;;;49.55;45.92;;;;;;;17.97;100.00;101171.78;5052977;28;20047;-88
2021/05/26 04:47:26;;;;;;;40.65;37.20;;;;;;;18.04;100.00;101173.25;5054173;28;20036;-87
2021/05/26 04:49:53;;;;;;;43.50;39.88;;;;;;;18.27;100.00;101180.31;5053147;28;20041;-87
2021/05/26 04:52:19;;;;;;;40.70;37.45;;;;;;;18.21;100.00;101191.25;5052847;28;20040;-87
2021/05/26 04:54:45;;;;;;;39.55;35.80;;;;;;;18.52;100.00;101185.28;5056771;28;20637;-86
2021/05/26 04:57:12;;;;;;;40.05;36.95;;;;;;;18.05;100.00;101179.44;5061665;28;20041;-88
2021/05/26 04:59:38;;;;;;;39.78;36.40;;;;;;;18.39;100.00;101195.56;5058790;28;20467;-87
2021/05/26 05:02:05;;;;;;;42.20;38.55;;;;;;;18.41;100.00;101190.75;5051537;28;20094;-87
2021/05/26 05:04:31;;;;;;;41.80;37.97;;;;;;;19.03;100.00;101185.13;5050265;28;20053;-87
2021/05/26 05:06:59;;;;;;;43.80;40.05;;;;;;;18.81;100.00;101185.16;5053546;28;20049;-88
2021/05/26 05:09:25;;;;;;;44.90;41.10;;;;;;;18.74;100.00;101185.34;5055170;28;20133;-87
2021/05/26 05:11:52;;;;;;;44.15;40.60;;;;;;;18.99;100.00;101192.91;5056293;28;20204;-89
2021/05/26 05:14:32;;;;;;;43.78;40.20;;;;;;;19.83;100.00;101172.81;5085866;23;20059;-80
2021/05/26 05:17:04;;;;;;;;;;;;;;;19.32;100.00;101195.72;5083772;28;20412;-78
2021/05/26 05:19:30;;;;;;;42.65;39.15;;;;;;;19.34;100.00;101193.59;5082265;28;20276;-78
2021/05/26 05:21:58;;;;;;;45.83;42.17;;;;;;;19.15;100.00;101193.09;5086235;28;20053;-78
2021/05/26 05:24:24;;;;;;;42.25;38.95;;;;;;;19.59;100.00;101187.66;5084138;28;20044;-80
2021/05/26 05:26:50;;;;;;;37.92;34.83;;;;;;;19.60;100.00;101206.25;5087956;28;20051;-77
2021/05/26 05:29:17;;;;;;;38.67;35.65;;;;;;;19.81;100.00;101190.31;5090510;28;20105;-77
2021/05/26 05:31:43;;;;;;;40.03;36.95;;;;;;;19.92;100.00;101197.44;5086533;28;20392;-77
2021/05/26 05:34:09;;;;;;;40.08;36.30;;;;;;;19.72;100.00;101208.00;5081000;28;20468;-78
2021/05/26 05:36:36;;;;;;;38.00;34.88;;;;;;;19.69;100.00;101209.34;5091258;28;20043;-78
2021/05/26 05:39:03;;;;;;;38.92;35.70;;;;;;;19.34;100.00;101226.72;5081614;28;20056;-77
2021/05/26 05:41:30;;;;;;;40.80;37.30;;;;;;;19.33;100.00;101232.34;5085223;28;20047;-79
2021/05/26 05:43:57;;;;;;;42.22;38.17;;;;;;;19.19;100.00;101232.75;5090594;28;20044;-78
2021/05/26 05:46:23;;;;;;;40.97;36.85;;;;;;;19.61;100.00;101236.72;5089285;28;20036;-78
2021/05/26 05:48:49;;;;;;;42.10;38.60;;;;;;;19.69;100.00;101230.88;5054851;28;20403;-78
2021/05/26 05:51:15;;;;;;;39.20;36.50;;;;;;;20.29;100.00;101221.72;5084583;28;20044;-78
2021/05/26 05:53:46;;;;;;;42.72;39.63;;;;;;;19.65;100.00;101235.97;5091475;28;20044;-77
2021/05/26 05:56:13;;;;;;;44.65;40.92;;;;;;;19.59;100.00;101242.34;5094123;28;20109;-78
2021/05/26 05:58:39;;;;;;;42.22;39.05;;;;;;;19.59;100.00;101244.22;5097485;28;20062;-78
2021/05/26 06:01:05;;;;;;;41.38;38.30;;;;;;;19.84;100.00;101241.81;5095926;28;20048;-79
2021/05/26 06:03:32;;;;;;;39.92;36.88;;;;;;;20.13;100.00;101233.47;5095345;28;20060;-78
2021/05/26 06:05:58;;;;;;;42.28;38.88;;;;;;;19.63;100.00;101242.66;5085224;28;20047;-79
2021/05/26 06:08:25;;;;;;;39.88;37.05;;;;;;;20.24;100.00;101235.19;5079545;28;20044;-81
2021/05/26 06:10:51;;;;;;;54.22;49.92;;;;;;;19.61;100.00;101242.09;5085547;28;20044;-79
2021/05/26 06:13:18;;;;;;;48.85;45.40;;;;;;;20.64;100.00;101224.97;5080872;28;20044;-79
2021/05/26 06:15:45;;;;;;;47.38;43.78;;;;;;;19.84;100.00;101243.69;5090154;28;20060;-77
2021/05/26 06:18:11;;;;;;;46.53;43.47;;;;;;;20.34;100.00;101237.94;5085527;28;20063;-80
2021/05/26 06:20:37;;;;;;;49.75;43.45;;;;;;;19.71;100.00;101249.50;5090166;28;20085;-78
2021/05/26 06:23:04;;;;;;;46.60;43.08;;;;;;;20.02;100.00;101246.03;5090983;28;20048;-78
2021/05/26 06:25:31;;;;;;;40.13;36.80;;;;;;;20.24;100.00;101254.06;5081675;28;20048;-78
2021/05/26 06:27:57;;;;;;;42.63;39.28;;;;;;;20.50;100.00;101240.75;5086055;28;20063;-79
2021/05/26 06:30:26;;;;;;;41.28;37.97;;;;;;;20.27;100.00;101250.00;5090632;28;20097;-78
2021/05/26 06:32:52;;;;;;;41.83;38.85;;;;;;;20.28;100.00;101240.88;5088332;28;20492;-79
2021/05/26 06:35:18;;;;;;;40.75;37.40;;;;;;;20.32;100.00;101240.06;5093805;28;20101;-79
2021/05/26 06:37:45;;;;;;;41.83;38.30;;;;;;;20.04;100.00;101251.19;5089604;28;20381;-80
2021/05/26 06:40:12;;;;;;;38.55;35.38;;;;;;;20.27;100.00;101256.25;5089719;28;20465;-79
2021/05/26 06:42:38;;;;;;;37.33;34.20;;;;;;;20.50;100.00;101254.25;5094083;28;20051;-80
2021/05/26 06:45:05;;;;;;;39.00;36.20;;;;;;;20.87;100.00;101248.81;5105039;28;20040;-79
2021/05/26 06:47:33;;;;;;;38.55;35.53;;;;;;;20.94;100.00;101240.50;5092715;28;20045;-79
2021/05/26 06:50:01;;;;;;;36.83;33.78;;;;;;;20.95;100.00;101244.84;5090133;28;20103;-78
2021/05/26 06:52:27;;;;;;;37.28;34.28;;;;;;;20.94;100.00;101243.22;5086087;28;20056;-77
2021/05/26 06:54:53;;;;;;;37.28;34.15;;;;;;;20.76;100.00;101256.06;5091041;28;20063;-79
2021/05/26 06:57:21;;;;;;;38.05;34.60;;;;;;;20.42;100.00;101260.91;5090572;28;20087;-81
2021/05/26 06:59:47;;;;;;;39.17;35.63;;;;;;;20.24;100.00;101269.41;5091351;28;20063;-80
2021/05/26 07:02:14;;;;;;;37.63;34.58;;;;;;;20.56;100.00;101264.03;5086105;28;20044;-79
2021/05/26 07:04:49;;;;;;;44.65;40.83;;;;;;;20.72;100.00;101264.94;5091574;28;20483;-79
2021/05/26 07:07:15;;;;;;;46.90;43.50;;;;;;;20.87;100.00;101264.22;5081890;28;20044;-78
2021/05/26 07:09:42;;;;;;;51.15;47.25;;;;;;;20.55;100.00;101265.09;5081141;28;20044;-77
2021/05/26 07:12:09;;;;;;;45.75;41.85;;;;;;;20.29;100.00;101267.56;5088147;28;20101;-78
2021/05/26 07:14:35;;;;;;;48.60;44.33;;;;;;;20.90;100.00;101264.50;5088980;28;20052;-79
2021/05/26 07:17:01;;;;;;;46.50;42.10;;;;;;;20.60;100.00;101267.81;5081574;28;20388;-79
2021/05/26 07:19:28;;;;;;;40.92;37.67;;;;;;;21.07;100.00;101256.22;5085083;28;20070;-80
2021/05/26 07:21:56;;;;;;;42.03;38.78;;;;;;;21.16;100.00;101260.06;5087494;28;20048;-78
2021/05/26 07:24:22;;;;;;;40.47;37.55;;;;;;;21.17;100.00;101252.75;5088908;28;20589;-78
2021/05/26 07:26:48;;;;;;;40.72;37.83;;;;;;;21.49;100.00;101253.44;5091817;28;20058;-79
2021/05/26 07:29:15;;;;;;;40.28;36.92;;;;;;;21.64;100.00;101244.56;5091474;28;20045;-79
2021/05/26 07:31:42;;;;;;;38.95;36.03;;;;;;;21.44;100.00;101253.44;5087589;28;20044;-80
2021/05/26 07:34:14;;;;;;;38.00;35.20;;;;;;;21.61;100.00;101264.03;5083766;28;20052;-80
2021/05/26 07:36:40;;;;;;;40.35;36.58;;;;;;;21.46;100.00;101258.56;5084450;28;20056;-79
2021/05/26 07:39:08;;;;;;;40.00;36.83;;;;;;;21.40;100.00;101252.34;5090770;28;20090;-78
2021/05/26 07:41:34;;;;;;;41.10;38.08;;;;;;;21.69;100.00;101259.97;5093274;28;20051;-79
2021/05/26 07:44:01;;;;;;;40.97;37.85;;;;;;;21.55;100.00;101240.78;5085781;28;20054;-78
2021/05/26 07:46:28;;;;;;;49.72;46.03;;;;;;;21.73;100.00;101255.69;5091124;28;20480;-77
2021/05/26 07:48:55;;;;;;;39.47;36.03;;;;;;;21.53;100.00;101236.69;5078064;28;20052;-79
2021/05/26 07:51:28;;;;;;;45.65;42.17;;;;;;;21.95;100.00;101236.50;5089954;28;20373;-79
2021/05/26 07:53:55;;;;;;;39.80;36.80;;;;;;;21.68;100.00;101239.44;5081393;28;20476;-80
2021/05/26 07:56:23;;;;;;;43.30;39.95;;;;;;;21.91;100.00;101241.66;5084853;28;20473;-78
2021/05/26 07:58:50;;;;;;;43.15;39.75;;;;;;;21.86;100.00;101238.13;5088039;28;20049;-78
2021/05/26 08:01:16;;;;;;;44.17;40.92;;;;;;;21.89;100.00;101232.97;5091631;28;20447;-82
2021/05/26 08:03:43;;;;;;;46.55;42.63;;;;;;;22.40;100.00;101233.00;5087176;28;20052;-79
2021/05/26 08:06:10;;;;;;;38.95;36.25;;;;;;;22.00;100.00;101222.16;5068612;22;20045;-88
2021/05/26 08:08:37;;;;;;;42.53;39.58;;;;;;;22.57;100.00;101237.31;5048874;28;20056;-87
2021/05/26 08:11:04;;;;;;;44.88;41.67;;;;;;;21.78;100.00;101225.94;5051692;28;20045;-88
2021/05/26 08:13:31;;;;;;;41.20;38.38;;;;;;;22.02;100.00;101230.81;5048548;28;20533;-89
2021/05/26 08:15:58;;;;;;;38.25;35.55;;;;;;;21.90;100.00;101233.78;5052388;28;20056;-89
2021/05/26 08:18:25;;;;;;;40.70;38.03;;;;;;;22.04;100.00;101240.28;5051913;28;20056;-88
2021/05/26 08:20:51;;;;;;;35.92;33.55;;;;;;;22.16;100.00;101226.50;5052263;28;20045;-88
2021/05/26 08:23:18;;;;;;;36.83;34.30;;;;;;;22.58;100.00;101236.25;5049180;28;20045;-88
2021/05/26 08:25:44;;;;;;;37.10;34.53;;;;;;;22.56;100.00;101238.41;5051949;28;20041;-88
2021/05/26 08:28:11;;;;;;;37.50;34.55;;;;;;;22.66;100.00;101232.16;5052984;28;20067;-89
2021/05/26 08:30:38;;;;;;;40.30;37.47;;;;;;;22.85;100.00;101236.69;5048674;28;20041;-88
2021/05/26 08:33:04;;;;;;;36.20;33.42;;;;;;;22.84;100.00;101228.84;5049283;28;20120;-89
2021/05/26 08:35:31;;;;;;;42.83;39.90;;;;;;;22.30;100.00;101219.50;5046025;28;20090;-89
2021/05/26 08:37:57;;;;;;;53.17;49.50;;;;;;;22.19;100.00;101236.81;5045757;28;20047;-88
2021/05/26 08:40:24;;;;;;;64.00;60.10;;;;;;;22.91;100.00;101234.78;5045156;28;20045;-89
2021/05/26 08:42:51;;;;;;;54.20;50.70;;;;;;;22.30;100.00;101227.63;5051514;28;20492;-90
2021/05/26 08:45:17;;;;;;;56.72;53.00;;;;;;;22.93;100.00;101229.09;5047982;28;20148;-89
2021/05/26 08:47:46;;;;;;;52.33;48.92;;;;;;;22.54;100.00;101225.16;5047575;28;20555;-89
2021/05/26 08:50:14;;;;;;;58.00;54.20;;;;;;;22.82;100.00;101226.44;5051354;28;20045;-88
2021/05/26 08:52:41;;;;;;;53.63;49.63;;;;;;;22.78;100.00;101229.94;5049193;28;20099;-88
2021/05/26 08:55:10;;;;;;;49.20;45.95;;;;;;;22.46;100.00;101216.78;5048079;28;20498;-88
2021/05/26 08:57:37;;;;;;;36.08;33.55;;;;;;;22.43;100.00;101230.84;5051356;28;20044;-88
2021/05/26 09:00:05;;;;;;;37.20;34.90;;;;;;;22.70;100.00;101227.81;5051585;28;20043;-88
2021/05/26 09:02:32;;;;;;;90.00;58.70;;;;;;;23.13;100.00;101228.25;5046762;28;20055;-88
2021/05/26 09:04:59;;;;;;;43.78;40.67;;;;;;;23.40;100.00;101235.97;5047110;28;20064;-88
2021/05/26 09:07:29;;;;;;;74.25;70.07;;;;;;;22.67;100.00;101217.53;5043703;28;20049;-89
2021/05/26 09:09:57;;;;;;;79.57;74.45;;;;;;;23.27;100.00;101221.13;5043468;28;20045;-87
2021/05/26 09:12:30;;;;;;;75.85;70.45;;;;;;;23.61;100.00;101223.13;5048626;28;20049;-88
2021/05/26 09:15:01;;;;;;;;;;;;;;;23.77;100.00;101211.09;5043346;28;20064;-89
2021/05/26 09:17:29;;;;;;;71.43;67.50;;;;;;;24.33;100.00;101215.25;5048176;28;20360;-88
2021/05/26 09:20:11;;;;;;;64.97;61.15;;;;;;;23.54;100.00;101212.56;5039793;28;20045;-88
2021/05/26 09:22:41;;;;;;;64.90;61.13;;;;;;;23.34;100.00;101210.78;5045008;28;20513;-89
2021/05/26 09:25:08;;;;;;;57.55;54.17;;;;;;;23.73;100.00;101205.44;5049069;28;20053;-88
2021/05/26 09:27:34;;;;;;;53.75;50.80;;;;;;;23.29;100.00;101214.31;5043448;28;20045;-89
2021/05/26 09:30:01;;;;;;;53.28;50.28;;;;;;;24.37;100.00;101205.44;5050580;28;20041;-87
2021/05/26 09:32:30;;;;;;;38.30;36.10;;;;;;;24.26;100.00;101204.72;5048996;28;20114;-88
2021/05/26 09:34:57;;;;;;;33.28;31.35;;;;;;;23.69;100.00;101212.50;5047928;28;20153;-88
2021/05/26 09:37:27;;;;;;;31.85;29.58;;;;;;;23.91;100.00;101209.38;5043013;28;20042;-89
2021/05/26 09:39:57;;;;;;;53.85;50.25;;;;;;;24.02;100.00;101210.06;5045973;28;20076;-88
2021/05/26 09:42:34;;;;;;;44.28;41.50;;;;;;;23.91;100.00;101208.56;5043660;28;20091;-88
2021/05/26 09:45:12;;;;;;;47.65;44.75;;;;;;;24.00;100.00;101209.56;5036739;28;20041;-88
2021/05/26 09:47:40;;;;;;;57.13;53.35;;;;;;;23.72;100.00;101214.66;5049259;28;20602;-88
2021/05/26 09:50:27;;;;;;;59.75;56.15;;;;;;;23.77;100.00;101209.19;5041912;28;21188;-88
2021/05/26 09:53:06;;;;;;;58.38;54.92;;;;;;;24.54;100.00;101202.28;5042348;28;20045;-88
2021/05/26 09:55:35;;;;;;;47.05;44.47;;;;;;;24.67;100.00;101193.47;5041430;28;20567;-88
2021/05/26 09:58:03;;;;;;;52.10;49.30;;;;;;;24.16;100.00;101200.19;5044331;28;20046;-89
2021/05/26 10:00:30;;;;;;;46.70;44.00;;;;;;;24.40;100.00;101196.72;5048735;28;20041;-89
2021/05/26 10:02:57;;;;;;;28.70;27.00;;;;;;;24.33;100.00;101198.97;5036830;28;20545;-88
2021/05/26 10:05:25;;;;;;;29.15;27.52;;;;;;;24.15;100.00;101203.19;5041916;28;20050;-89
2021/05/26 10:07:53;;;;;;;29.63;27.73;;;;;;;24.05;100.00;101198.66;5045800;28;20115;-89
2021/05/26 10:10:22;;;;;;;47.53;45.05;;;;;;;24.81;100.00;101202.53;5045228;28;20049;-88
2021/05/26 10:12:55;;;;;;;44.53;41.65;;;;;;;25.29;100.00;101191.59;5049568;28;20060;-88
2021/05/26 10:15:23;;;;;;;43.08;40.67;;;;;;;25.27;100.00;101182.16;5045391;28;20053;-89
2021/05/26 10:17:51;;;;;;;48.00;45.10;;;;;;;26.42;100.00;101195.28;5037009;28;20045;-89
2021/05/26 10:20:20;;;;;;;46.10;43.53;;;;;;;24.94;100.00;101183.91;5045166;28;20090;-88
2021/05/26 10:22:48;;;;;;;51.15;48.25;;;;;;;25.75;100.00;101193.66;5040712;28;21423;-88
2021/05/26 10:25:15;;;;;;;41.70;39.25;;;;;;;26.22;100.00;101185.53;5045718;28;20049;-88
2021/05/26 10:27:48;;;;;;;47.60;44.63;;;;;;;25.40;100.00;101189.56;5040618;28;20060;-88
2021/05/26 10:30:17;;;;;;;29.77;27.85;;;;;;;24.13;100.00;101186.38;5041326;28;20041;-88
2021/05/26 10:32:51;;;;;;;29.73;27.52;;;;;;;24.51;100.00;101187.41;5041803;28;20442;-88
2021/05/26 10:35:18;;;;;;;29.23;27.38;;;;;;;24.62;100.00;101185.38;5044212;28;20045;-88
2021/05/26 10:37:47;;;;;;;49.72;47.00;;;;;;;25.05;100.00;101186.22;5048554;28;20568;-88
2021/05/26 10:40:49;;;;;;;42.35;39.95;;;;;;;25.80;100.00;101177.22;5049388;28;20490;-88
2021/05/26 10:43:33;;;;;;;40.05;37.47;;;;;;;25.81;100.00;101178.91;5045087;28;20060;-89
2021/05/26 10:46:01;;;;;;;47.33;44.78;;;;;;;26.13;100.00;101176.47;5045248;28;20140;-89
2021/05/26 10:49:08;;;;;;;51.78;48.88;;;;;;;25.57;100.00;101175.47;5047096;28;20103;-88
2021/05/26 10:52:04;;;;;;;41.22;38.85;;;;;;;27.00;100.00;101163.91;5045753;28;20149;-89
2021/05/26 10:54:58;;;;;;;39.63;37.13;;;;;;;26.58;100.00;101165.84;5047442;28;20107;-89
2021/05/26 10:57:25;;;;;;;42.70;40.17;;;;;;;26.23;100.00;101166.22;5041742;28;20051;-88
2021/05/26 11:00:25;;;;;;;29.42;27.33;;;;;;;24.95;100.00;101163.78;5043566;28;20071;-88
2021/05/26 11:03:33;;;;;;;30.70;28.65;;;;;;;26.15;100.00;101153.28;5045013;28;20052;-88
2021/05/26 11:06:02;;;;;;;28.25;26.40;;;;;;;25.78;100.00;101151.44;5041963;28;20067;-88
2021/05/26 11:08:34;;;;;;;28.52;26.63;;;;;;;26.16;100.00;101154.09;5052516;28;20057;-89
2021/05/26 11:11:34;;;;;;;40.90;38.25;;;;;;;26.70;100.00;101147.88;5047954;28;20049;-88